createdAt,value
2014-10-08T20:39:40.535Z,25
2014-10-08T20:39:58.754Z,558
2014-10-08T20:40:16.957Z,571
2014-10-08T20:40:35.176Z,572
2014-10-08T20:40:53.398Z,570
2014-10-08T20:41:11.616Z,554
2014-10-08T20:41:29.819Z,569
2014-10-08T20:41:48.039Z,550
2014-10-08T20:42:06.258Z,560
2014-10-08T20:42:24.461Z,565
2014-10-08T20:42:42.680Z,565
2014-10-08T20:43:00.902Z,551
2014-10-08T20:43:19.120Z,553
2014-10-08T20:43:37.339Z,556
2014-10-08T20:43:55.559Z,541
2014-10-08T20:44:13.762Z,541
2014-10-08T20:44:31.981Z,544
2014-10-08T20:44:50.199Z,561
2014-10-08T20:45:08.420Z,558
2014-10-08T20:45:26.639Z,538
2014-10-08T20:45:44.858Z,548
2014-10-08T20:46:03.079Z,559
2014-10-08T20:46:21.298Z,557
2014-10-08T20:46:39.517Z,550
2014-10-08T20:46:57.736Z,548
2014-10-08T20:47:15.956Z,555
2014-10-08T20:47:34.175Z,536
2014-10-08T20:47:52.394Z,557
2014-10-08T20:48:10.615Z,535
2014-10-08T20:48:28.833Z,556
2014-10-08T20:48:47.037Z,549
2014-10-08T20:49:05.255Z,549
2014-10-08T20:49:23.476Z,0
2014-10-08T20:49:41.695Z,0
2014-10-08T20:49:59.898Z,0
2014-10-08T20:50:18.119Z,0
2014-10-08T20:50:36.322Z,0
2014-10-08T20:50:54.541Z,0
2014-10-08T20:51:12.759Z,0
2014-10-08T20:51:30.964Z,0
2014-10-08T20:51:49.183Z,0
2014-10-08T20:52:07.386Z,0
2014-10-08T20:52:25.607Z,0
2014-10-08T20:52:43.826Z,0
2014-10-08T20:53:02.029Z,0
2014-10-08T20:53:20.248Z,0
2014-10-08T20:53:38.468Z,0
2014-10-08T20:53:56.672Z,0
2014-10-08T20:54:14.890Z,0
2014-10-08T20:54:33.095Z,0
2014-10-08T20:54:51.314Z,0
2014-10-08T20:55:09.533Z,0
2014-10-08T20:55:27.736Z,0
2014-10-08T20:55:45.958Z,0
2014-10-08T20:56:04.161Z,0
2014-10-08T20:56:22.380Z,0
2014-10-08T20:56:40.584Z,0
2014-10-08T20:56:58.803Z,0
2014-10-08T20:57:17.021Z,0
2014-10-08T20:57:35.224Z,0
2014-10-08T20:57:53.446Z,0
2014-10-08T20:58:11.665Z,0
2014-10-08T20:58:29.868Z,0
2014-10-08T20:58:48.089Z,0
2014-10-08T20:59:06.292Z,0
2014-10-08T20:59:24.511Z,0
2014-10-08T20:59:42.714Z,0
2014-10-08T21:00:00.934Z,0
2014-10-08T21:00:19.152Z,0
2014-10-08T21:00:37.355Z,0
2014-10-08T21:00:55.576Z,0
2014-10-08T21:01:13.779Z,0
2014-10-08T21:01:31.998Z,0
2014-10-08T21:01:50.217Z,0
2014-10-08T21:02:08.422Z,0
2014-10-08T21:02:26.641Z,0
2014-10-08T21:02:44.844Z,0
2014-10-08T21:03:03.065Z,0
2014-10-08T21:03:21.268Z,0
2014-10-08T21:03:39.486Z,0
2014-10-08T21:03:57.690Z,0
2014-10-08T21:04:15.910Z,0
2014-10-08T21:04:34.113Z,0
2014-10-08T21:04:52.332Z,0
2014-10-08T21:05:10.537Z,0
2014-10-08T21:05:28.756Z,0
2014-10-08T21:05:46.959Z,0
2014-10-08T21:06:05.178Z,0
2014-10-08T21:06:23.384Z,0
2014-10-08T21:06:41.603Z,0
2014-10-08T21:06:59.822Z,0
2014-10-08T21:07:18.027Z,0
2014-10-08T21:07:36.245Z,0
2014-10-08T21:07:54.449Z,0
2014-10-08T21:08:12.667Z,0
2014-10-08T21:08:30.871Z,0
2014-10-08T21:08:49.090Z,0
2014-10-08T21:09:07.309Z,0
2014-10-08T21:09:25.514Z,0
2014-10-08T21:09:43.733Z,0
2014-10-08T21:10:01.952Z,0
2014-10-08T21:10:20.155Z,0
2014-10-08T21:10:38.376Z,0
2014-10-08T21:10:56.580Z,0
2014-10-08T21:11:14.798Z,0
2014-10-08T21:11:33.003Z,0
2014-10-08T21:11:51.222Z,0
2014-10-08T21:12:09.425Z,0
2014-10-08T21:12:27.644Z,0
2014-10-08T21:12:45.849Z,0
2014-10-08T21:13:04.068Z,0
2014-10-08T21:13:22.287Z,0
2014-10-08T21:13:40.492Z,0
2014-10-08T21:13:58.711Z,0
2014-10-08T21:14:16.914Z,0
2014-10-08T21:14:35.132Z,0
2014-10-08T21:14:53.338Z,0
2014-10-08T21:15:11.556Z,0
2014-10-08T21:15:29.759Z,0
2014-10-08T21:15:47.980Z,0
2014-10-08T21:16:06.183Z,0
2014-10-08T21:16:24.402Z,0
2014-10-08T21:16:42.621Z,0
2014-10-08T21:17:00.826Z,0
2014-10-08T21:17:19.045Z,0
2014-10-08T21:17:37.248Z,0
2014-10-08T21:17:55.469Z,0
2014-10-08T21:18:13.672Z,0
2014-10-08T21:18:31.890Z,0
2014-10-08T21:18:49.953Z,0
2014-10-08T21:19:08.158Z,0
2014-10-08T21:19:26.392Z,0
2014-10-08T21:19:44.596Z,0
2014-10-08T21:20:02.801Z,0
2014-10-08T21:20:21.019Z,0
2014-10-08T21:20:39.223Z,0
2014-10-08T21:20:57.441Z,0
2014-10-08T21:21:15.662Z,0
2014-10-08T21:21:33.865Z,0
2014-10-08T21:21:52.084Z,0
2014-10-08T21:22:10.289Z,0
2014-10-08T21:22:28.508Z,0
2014-10-08T21:22:46.711Z,0
2014-10-08T21:23:04.930Z,0
2014-10-08T21:23:23.135Z,0
2014-10-08T21:23:41.354Z,0
2014-10-08T21:23:59.557Z,0
2014-10-08T21:24:17.777Z,0
2014-10-08T21:24:35.981Z,0
2014-10-08T21:24:54.184Z,0
2014-10-08T21:25:12.402Z,0
2014-10-08T21:25:30.608Z,0
2014-10-08T21:25:48.826Z,0
2014-10-08T21:26:07.045Z,0
2014-10-08T21:26:25.250Z,0
2014-10-08T21:26:43.453Z,0
2014-10-08T21:27:01.672Z,0
2014-10-08T21:27:19.891Z,0
2014-10-08T21:27:38.096Z,0
